Time;durP1;ratioP1;P1;durP2;ratioP2;P2;SDS_P1;SDS_P2;PMS_P1;PMS_P2;Temp;Humidity;BMP_temperature;BMP_pressure;BME280_temperature;BME280_humidity;BME280_pressure;Samples;Min_cycle;Max_cycle;Signal;HPM_P1;HPM_P2
2021/11/27 00:00:33;;;;;;;19.13;11.13;;;3.90;96.80;;;;;;5031439;28;20440;-82
2021/11/27 00:02:59;;;;;;;20.33;10.40;;;3.90;96.80;;;;;;5024634;28;20475;-81
2021/11/27 00:05:27;;;;;;;18.60;9.93;;;3.90;97.00;;;;;;5031579;28;20029;-81
2021/11/27 00:07:53;;;;;;;18.58;9.63;;;3.80;96.90;;;;;;5028881;28;20034;-81
2021/11/27 00:10:22;;;;;;;15.02;9.00;;;3.80;97.10;;;;;;5016783;28;20034;-81
2021/11/27 00:12:48;;;;;;;17.25;10.15;;;3.80;97.00;;;;;;5025649;28;20108;-82
2021/11/27 00:15:15;;;;;;;19.10;9.30;;;3.80;97.00;;;;;;5047657;28;20025;-81
2021/11/27 00:17:41;;;;;;;15.02;9.13;;;3.80;97.10;;;;;;5030743;28;20505;-80
2021/11/27 00:20:14;;;;;;;18.75;9.93;;;3.80;97.10;;;;;;5038100;28;20076;-81
2021/11/27 00:22:39;;;;;;;18.50;10.45;;;3.80;97.20;;;;;;5037558;28;20454;-81
2021/11/27 00:25:07;;;;;;;18.50;9.93;;;3.80;97.30;;;;;;5035284;28;20049;-81
2021/11/27 00:27:33;;;;;;;18.80;10.32;;;3.80;97.30;;;;;;5036339;28;20048;-81
2021/11/27 00:29:59;;;;;;;20.10;10.23;;;3.80;97.40;;;;;;5032240;28;20034;-82
2021/11/27 00:32:25;;;;;;;20.02;9.63;;;3.80;97.40;;;;;;5020323;28;20092;-82
2021/11/27 00:34:50;;;;;;;18.02;9.23;;;3.80;97.40;;;;;;5030784;28;20474;-83
2021/11/27 00:37:17;;;;;;;17.50;9.38;;;3.80;97.40;;;;;;5049482;28;20052;-82
2021/11/27 00:39:43;;;;;;;16.85;9.73;;;3.80;97.40;;;;;;5054947;28;20044;-82
2021/11/27 00:42:09;;;;;;;19.35;9.63;;;3.90;97.40;;;;;;5048683;28;20036;-82
2021/11/27 00:44:34;;;;;;;15.50;9.00;;;3.80;97.40;;;;;;5064998;28;20072;-82
2021/11/27 00:47:00;;;;;;;17.42;8.98;;;3.90;97.40;;;;;;5026429;28;20478;-82
2021/11/27 00:49:25;;;;;;;17.60;9.80;;;3.90;97.40;;;;;;5027517;28;20171;-81
2021/11/27 00:51:51;;;;;;;20.73;10.07;;;3.90;97.40;;;;;;5025133;28;20449;-82
2021/11/27 00:54:21;;;;;;;17.50;10.10;;;3.90;97.30;;;;;;5028716;28;20397;-82
2021/11/27 00:56:47;;;;;;;18.08;9.52;;;3.80;97.30;;;;;;5041379;28;20037;-82
2021/11/27 00:59:13;;;;;;;18.48;9.50;;;3.90;97.30;;;;;;5025693;28;20118;-82
2021/11/27 01:01:39;;;;;;;17.58;9.77;;;3.80;97.30;;;;;;5038325;28;20430;-82
2021/11/27 01:04:04;;;;;;;19.88;10.45;;;3.80;97.40;;;;;;5033196;28;20140;-82
2021/11/27 01:06:30;;;;;;;17.15;8.77;;;3.80;97.30;;;;;;5028785;28;20030;-82
2021/11/27 01:09:02;;;;;;;16.23;9.95;;;3.70;97.30;;;;;;5025596;28;20038;-82
2021/11/27 01:11:34;;;;;;;18.80;8.73;;;3.70;97.30;;;;;;5029052;28;20080;-83
2021/11/27 01:14:10;;;;;;;13.70;7.27;;;3.70;97.20;;;;;;5029383;28;20032;-82
2021/11/27 01:16:38;;;;;;;16.40;8.88;;;3.70;97.20;;;;;;5031517;28;20386;-82
2021/11/27 01:19:05;;;;;;;16.83;9.05;;;3.60;97.20;;;;;;5019546;28;20040;-82
2021/11/27 01:21:33;;;;;;;16.52;8.95;;;3.60;97.30;;;;;;5020960;28;20064;-83
2021/11/27 01:24:03;;;;;;;17.38;9.95;;;3.60;97.30;;;;;;5012603;28;20088;-82
2021/11/27 01:26:29;;;;;;;16.52;9.45;;;3.50;97.40;;;;;;5021754;28;20030;-83
2021/11/27 01:28:55;;;;;;;17.52;9.45;;;3.50;97.40;;;;;;5026956;28;20389;-82
2021/11/27 01:31:21;;;;;;;17.02;8.73;;;3.50;97.50;;;;;;5019582;28;20034;-82
2021/11/27 01:33:47;;;;;;;19.30;9.93;;;3.50;97.50;;;;;;5030633;28;20022;-81
2021/11/27 01:36:12;;;;;;;15.45;9.65;;;3.50;97.60;;;;;;5028913;28;20540;-82
2021/11/27 01:38:38;;;;;;;21.05;10.55;;;3.40;97.60;;;;;;5025569;28;20414;-82
2021/11/27 01:41:04;;;;;;;18.55;10.68;;;3.40;97.60;;;;;;5032254;28;20107;-82
2021/11/27 01:43:32;;;;;;;16.70;9.05;;;3.30;97.60;;;;;;5022235;28;20088;-82
2021/11/27 01:45:58;;;;;;;17.85;10.23;;;3.30;97.70;;;;;;5029594;28;20037;-82
2021/11/27 01:48:24;;;;;;;18.50;8.45;;;3.30;97.70;;;;;;5024262;28;20033;-82
2021/11/27 01:50:59;;;;;;;17.52;8.55;;;3.30;97.80;;;;;;5031645;28;20045;-82
2021/11/27 01:53:25;;;;;;;18.85;9.55;;;3.30;97.90;;;;;;5024234;28;20034;-82
2021/11/27 01:55:54;;;;;;;19.67;10.18;;;3.20;98.00;;;;;;5041115;28;20104;-82
2021/11/27 01:58:20;;;;;;;15.98;9.20;;;3.30;98.10;;;;;;5020766;28;20501;-81
2021/11/27 02:00:50;;;;;;;20.48;10.25;;;3.30;98.30;;;;;;5022357;28;20029;-81
2021/11/27 02:03:16;;;;;;;16.63;9.00;;;3.30;98.20;;;;;;5034645;28;20390;-81
2021/11/27 02:05:41;;;;;;;18.85;10.07;;;3.30;98.30;;;;;;5011484;28;20438;-81
2021/11/27 02:08:07;;;;;;;16.17;9.10;;;3.40;98.40;;;;;;5041824;28;20029;-81
2021/11/27 02:10:33;;;;;;;18.75;9.07;;;3.40;98.40;;;;;;5029775;28;20047;-82
2021/11/27 02:12:59;;;;;;;15.50;9.23;;;3.40;98.40;;;;;;5024508;28;20368;-82
2021/11/27 02:15:25;;;;;;;16.63;9.18;;;3.50;98.20;;;;;;5024240;28;20043;-80
2021/11/27 02:17:50;;;;;;;15.57;8.82;;;3.60;98.00;;;;;;5030176;28;20049;-81
2021/11/27 02:20:16;;;;;;;17.02;9.35;;;3.60;98.00;;;;;;5024775;28;20026;-81
2021/11/27 02:22:42;;;;;;;12.70;8.10;;;3.70;97.80;;;;;;5023228;28;20034;-81
2021/11/27 02:25:11;;;;;;;20.95;9.60;;;3.70;97.80;;;;;;5010240;28;20425;-81
2021/11/27 02:27:37;;;;;;;16.15;9.15;;;3.80;97.50;;;;;;5020797;28;20116;-81
2021/11/27 02:30:04;;;;;;;18.10;9.13;;;3.80;97.60;;;;;;5028421;28;20921;-83
2021/11/27 02:32:30;;;;;;;15.75;8.10;;;3.80;97.50;;;;;;5034321;28;20047;-83
2021/11/27 02:34:55;;;;;;;13.52;8.45;;;3.90;97.50;;;;;;5032104;28;20033;-82
2021/11/27 02:37:21;;;;;;;15.23;8.73;;;4.00;97.20;;;;;;5013765;28;20037;-82
2021/11/27 02:39:47;;;;;;;15.85;9.23;;;4.00;97.20;;;;;;5030798;28;20026;-82
2021/11/27 02:42:12;;;;;;;17.65;10.07;;;4.00;97.20;;;;;;5018253;28;20033;-82
2021/11/27 02:44:38;;;;;;;14.75;8.07;;;4.10;97.10;;;;;;5026909;28;20037;-82
2021/11/27 02:47:06;;;;;;;17.77;9.18;;;4.10;97.10;;;;;;5025584;28;20110;-82
2021/11/27 02:49:32;;;;;;;16.10;8.57;;;4.10;97.00;;;;;;5030845;28;20107;-83
2021/11/27 02:51:58;;;;;;;13.75;8.13;;;4.20;96.90;;;;;;5028989;28;20057;-82
2021/11/27 02:54:26;;;;;;;15.73;8.25;;;4.20;96.80;;;;;;5022122;28;20095;-81
2021/11/27 02:56:52;;;;;;;14.45;8.07;;;4.20;96.60;;;;;;5013495;28;20172;-83
2021/11/27 02:59:22;;;;;;;23.20;8.20;;;4.30;96.60;;;;;;5022246;28;20032;-82
2021/11/27 03:01:52;;;;;;;13.82;7.75;;;4.20;96.50;;;;;;5028365;28;20104;-82
2021/11/27 03:04:18;;;;;;;11.38;7.00;;;4.20;96.40;;;;;;5031381;28;20044;-82
2021/11/27 03:06:44;;;;;;;12.90;7.70;;;4.20;96.40;;;;;;5031985;28;20029;-82
2021/11/27 03:09:12;;;;;;;14.90;7.75;;;4.20;96.50;;;;;;5029320;28;20040;-82
2021/11/27 03:11:37;;;;;;;14.10;8.30;;;4.20;96.40;;;;;;5031166;28;20055;-82
2021/11/27 03:14:04;;;;;;;13.30;7.00;;;4.20;96.50;;;;;;5021805;28;20470;-82
2021/11/27 03:16:32;;;;;;;16.30;7.80;;;4.20;96.40;;;;;;5017047;28;20084;-82
2021/11/27 03:18:58;;;;;;;11.32;6.88;;;4.20;96.50;;;;;;5024662;28;20065;-82
2021/11/27 03:21:24;;;;;;;16.27;7.70;;;4.20;96.50;;;;;;5018684;28;20071;-83
2021/11/27 03:23:50;;;;;;;12.20;7.32;;;4.20;96.50;;;;;;5030827;28;20052;-81
2021/11/27 03:26:16;;;;;;;12.63;6.20;;;4.30;96.50;;;;;;5028186;28;20053;-82
2021/11/27 03:28:44;;;;;;;11.48;6.82;;;4.30;96.30;;;;;;5022873;28;20092;-81
2021/11/27 03:31:09;;;;;;;13.02;7.13;;;4.30;96.30;;;;;;5038636;28;20038;-81
2021/11/27 03:33:35;;;;;;;11.02;7.05;;;4.30;96.20;;;;;;5028046;28;20025;-81
2021/11/27 03:36:01;;;;;;;13.73;7.70;;;4.40;96.20;;;;;;5031739;28;20022;-82
2021/11/27 03:38:26;;;;;;;15.32;7.70;;;4.40;96.00;;;;;;5029338;28;20022;-81
2021/11/27 03:40:52;;;;;;;11.95;7.00;;;4.40;95.90;;;;;;5027056;28;20079;-81
2021/11/27 03:43:18;;;;;;;10.32;6.80;;;4.40;95.90;;;;;;5025871;28;20053;-82
2021/11/27 03:45:44;;;;;;;13.45;7.53;;;4.50;95.90;;;;;;5027486;28;20029;-82
2021/11/27 03:48:12;;;;;;;10.90;6.97;;;4.50;96.00;;;;;;5024260;28;20424;-81
2021/11/27 03:50:50;;;;;;;10.75;6.38;;;4.50;95.70;;;;;;5029395;28;20060;-81
2021/11/27 03:53:19;;;;;;;11.95;6.85;;;4.40;95.70;;;;;;5029758;28;20030;-82
2021/11/27 03:55:45;;;;;;;13.48;6.75;;;4.40;95.70;;;;;;5014345;28;20034;-82
2021/11/27 03:58:11;;;;;;;13.70;6.65;;;4.40;95.60;;;;;;5033487;28;20065;-82
2021/11/27 04:00:37;;;;;;;11.10;6.88;;;4.40;95.60;;;;;;5046679;28;20116;-82
2021/11/27 04:03:05;;;;;;;12.50;7.45;;;4.40;95.90;;;;;;5047756;28;20022;-82
2021/11/27 04:05:38;;;;;;;11.52;7.18;;;4.40;95.70;;;;;;5053075;28;20018;-82
2021/11/27 04:08:03;;;;;;;8.23;4.00;;;4.30;95.60;;;;;;5044962;28;20018;-82
2021/11/27 04:10:29;;;;;;;10.70;6.60;;;4.40;95.60;;;;;;5052669;28;20024;-82
2021/11/27 04:12:54;;;;;;;11.60;6.25;;;4.30;95.70;;;;;;5026611;28;20064;-81
2021/11/27 04:15:20;;;;;;;11.68;6.07;;;4.30;95.70;;;;;;5024157;28;20080;-82
2021/11/27 04:17:46;;;;;;;11.88;6.95;;;4.30;95.60;;;;;;5011839;28;20186;-82
2021/11/27 04:20:12;;;;;;;12.07;6.68;;;4.30;95.60;;;;;;5022196;28;20030;-82
2021/11/27 04:22:37;;;;;;;10.73;7.07;;;4.30;95.70;;;;;;5011749;28;20520;-82
2021/11/27 04:25:03;;;;;;;9.90;6.53;;;4.30;95.90;;;;;;5029870;28;20041;-82
2021/11/27 04:27:29;;;;;;;10.27;6.18;;;4.30;95.90;;;;;;5026522;28;20037;-81
2021/11/27 04:29:55;;;;;;;10.57;6.63;;;4.20;95.80;;;;;;5028026;28;20144;-81
2021/11/27 04:32:20;;;;;;;11.50;6.97;;;4.20;95.90;;;;;;5025411;28;20029;-82
2021/11/27 04:34:46;;;;;;;12.60;6.45;;;4.30;95.90;;;;;;5025081;28;20508;-82
2021/11/27 04:37:13;;;;;;;13.48;6.65;;;4.30;96.10;;;;;;5025697;28;20034;-82
2021/11/27 04:39:40;;;;;;;9.63;5.65;;;4.30;95.80;;;;;;5026649;28;20022;-81
2021/11/27 04:42:06;;;;;;;10.43;7.00;;;4.40;95.80;;;;;;5024126;28;20037;-82
2021/11/27 04:44:32;;;;;;;8.93;5.85;;;4.40;95.60;;;;;;5016381;28;20048;-82
2021/11/27 04:46:58;;;;;;;11.38;6.93;;;4.40;95.60;;;;;;5024902;28;20037;-82
2021/11/27 04:49:23;;;;;;;10.82;6.18;;;4.40;95.70;;;;;;5024916;28;20151;-82
2021/11/27 04:51:49;;;;;;;10.55;6.40;;;4.40;95.60;;;;;;5015403;28;20040;-82
2021/11/27 04:54:14;;;;;;;10.27;5.88;;;4.40;95.60;;;;;;5028661;28;20041;-82
2021/11/27 04:56:40;;;;;;;11.52;6.03;;;4.50;95.50;;;;;;5029925;28;20025;-82
2021/11/27 04:59:05;;;;;;;10.52;5.82;;;4.50;95.60;;;;;;5022246;28;20025;-82
2021/11/27 05:01:31;;;;;;;12.88;6.13;;;4.50;95.50;;;;;;5024476;28;20398;-83
2021/11/27 05:03:56;;;;;;;13.30;6.82;;;4.50;95.50;;;;;;5019279;28;20514;-83
2021/11/27 05:06:22;;;;;;;9.85;5.57;;;4.50;95.40;;;;;;5028467;28;20030;-82
2021/11/27 05:08:48;;;;;;;12.43;6.47;;;4.50;95.30;;;;;;5027524;28;20532;-81
2021/11/27 05:11:14;;;;;;;11.48;6.25;;;4.50;95.20;;;;;;5015745;28;20037;-81
2021/11/27 05:13:39;;;;;;;11.30;6.05;;;4.60;95.40;;;;;;5030136;28;20080;-81
2021/11/27 05:16:06;;;;;;;12.10;6.78;;;4.60;95.40;;;;;;5033500;28;20026;-81
2021/11/27 05:18:32;;;;;;;11.93;7.90;;;4.60;95.40;;;;;;5037373;28;20604;-82
2021/11/27 05:20:58;;;;;;;11.15;6.30;;;4.60;95.40;;;;;;5031519;28;20041;-82
2021/11/27 05:23:24;;;;;;;12.50;6.68;;;4.60;95.40;;;;;;5030015;28;20056;-82
2021/11/27 05:25:49;;;;;;;11.80;6.30;;;4.60;95.40;;;;;;5012071;28;20045;-82
2021/11/27 05:28:15;;;;;;;11.00;5.97;;;4.60;95.50;;;;;;5026934;28;20041;-82
2021/11/27 05:30:41;;;;;;;11.27;6.45;;;4.60;95.50;;;;;;5024799;28;20037;-81
2021/11/27 05:33:12;;;;;;;10.23;6.32;;;4.70;95.50;;;;;;5029234;28;20057;-81
2021/11/27 05:35:39;;;;;;;8.48;5.97;;;4.70;95.40;;;;;;5029199;28;20025;-81
2021/11/27 05:38:05;;;;;;;11.02;6.85;;;4.70;95.50;;;;;;5030067;28;20483;-82
2021/11/27 05:40:31;;;;;;;10.98;7.00;;;4.70;95.60;;;;;;5030256;28;20088;-82
2021/11/27 05:42:57;;;;;;;10.73;7.28;;;4.70;95.50;;;;;;5021097;28;20091;-81
2021/11/27 05:45:28;;;;;;;16.10;7.45;;;4.70;95.40;;;;;;5019337;28;20035;-83
2021/11/27 05:47:56;;;;;;;11.32;7.70;;;4.80;95.20;;;;;;5028260;28;20131;-82
2021/11/27 05:50:21;;;;;;;13.57;6.78;;;4.80;95.20;;;;;;5024510;28;20029;-82
2021/11/27 05:52:47;;;;;;;12.70;7.03;;;4.90;95.40;;;;;;5026941;28;20041;-82
2021/11/27 05:55:12;;;;;;;12.02;7.32;;;4.90;95.30;;;;;;5030895;28;20033;-82
2021/11/27 05:57:38;;;;;;;13.80;7.47;;;4.90;95.20;;;;;;5038253;28;20207;-82
2021/11/27 06:00:05;;;;;;;10.43;6.47;;;4.90;95.00;;;;;;5030822;28;20084;-81
2021/11/27 06:02:32;;;;;;;12.95;7.25;;;4.90;95.10;;;;;;5013567;28;20025;-82
2021/11/27 06:04:57;;;;;;;10.75;7.00;;;5.00;95.00;;;;;;5010888;28;20076;-82
2021/11/27 06:07:23;;;;;;;12.30;6.95;;;5.00;94.90;;;;;;5018726;28;20558;-81
2021/11/27 06:09:48;;;;;;;12.82;7.68;;;5.00;94.80;;;;;;5024241;28;20086;-81
2021/11/27 06:12:14;;;;;;;14.60;7.63;;;5.00;94.90;;;;;;5030302;28;20072;-82
2021/11/27 06:14:39;;;;;;;12.05;7.32;;;5.10;94.90;;;;;;5021828;28;20052;-82
2021/11/27 06:17:05;;;;;;;11.23;7.45;;;5.10;94.80;;;;;;5030800;28;20394;-82
2021/11/27 06:19:31;;;;;;;12.25;6.97;;;5.10;95.10;;;;;;5029566;28;20037;-82
2021/11/27 06:21:56;;;;;;;11.88;7.88;;;5.20;94.90;;;;;;5032516;28;20029;-82
2021/11/27 06:24:22;;;;;;;13.68;8.30;;;5.10;94.90;;;;;;5041884;28;20040;-81
2021/11/27 06:26:47;;;;;;;13.50;6.50;;;5.20;94.90;;;;;;5032056;28;20052;-82
2021/11/27 06:29:13;;;;;;;12.45;6.78;;;5.20;94.90;;;;;;5027306;28;20627;-82
2021/11/27 06:31:39;;;;;;;13.50;7.47;;;5.20;94.90;;;;;;5039528;28;20024;-82
2021/11/27 06:34:04;;;;;;;12.02;7.93;;;5.20;95.00;;;;;;5034039;28;20025;-82
2021/11/27 06:36:31;;;;;;;13.40;8.13;;;5.20;95.00;;;;;;5020200;28;20032;-82
2021/11/27 06:38:56;;;;;;;12.25;7.90;;;5.20;95.10;;;;;;5021048;28;20029;-82
2021/11/27 06:41:22;;;;;;;14.27;7.75;;;5.20;95.10;;;;;;5030265;28;20079;-82
2021/11/27 06:43:48;;;;;;;12.00;7.78;;;5.20;95.00;;;;;;5045165;28;20037;-82
2021/11/27 06:46:13;;;;;;;13.00;7.97;;;5.30;94.90;;;;;;5046005;28;20101;-82
2021/11/27 06:48:40;;;;;;;11.77;7.78;;;5.30;94.90;;;;;;5051228;28;20017;-82
2021/11/27 06:51:06;;;;;;;13.20;7.72;;;5.30;94.70;;;;;;5048509;28;20025;-83
2021/11/27 06:53:31;;;;;;;16.10;8.32;;;5.30;94.80;;;;;;5034670;28;20022;-82
2021/11/27 06:55:57;;;;;;;12.32;7.95;;;5.30;94.70;;;;;;5032148;28;20030;-83
2021/11/27 06:58:23;;;;;;;14.95;9.02;;;5.30;94.80;;;;;;5044950;28;20028;-83
2021/11/27 07:00:48;;;;;;;13.73;7.53;;;5.30;94.80;;;;;;5038881;28;20044;-83
2021/11/27 07:03:14;;;;;;;16.20;9.65;;;5.30;94.70;;;;;;5029645;28;20088;-83
2021/11/27 07:05:39;;;;;;;13.50;8.05;;;5.30;94.60;;;;;;5022634;28;20445;-83
2021/11/27 07:08:05;;;;;;;14.73;8.48;;;5.30;94.60;;;;;;5032390;28;20032;-83
2021/11/27 07:10:30;;;;;;;16.92;8.93;;;5.30;94.70;;;;;;5043872;28;20037;-82
2021/11/27 07:12:59;;;;;;;16.13;9.00;;;5.30;94.80;;;;;;5027153;28;20026;-83
2021/11/27 07:15:24;;;;;;;17.60;9.45;;;5.30;94.90;;;;;;5027278;28;20030;-83
2021/11/27 07:17:50;;;;;;;14.50;9.20;;;5.30;94.70;;;;;;5028682;28;20387;-82
2021/11/27 07:20:15;;;;;;;19.02;9.18;;;5.30;94.80;;;;;;5026673;28;20060;-82
2021/11/27 07:22:41;;;;;;;15.50;9.32;;;5.40;94.90;;;;;;5028275;28;20090;-82
2021/11/27 07:25:07;;;;;;;14.80;9.13;;;5.40;95.20;;;;;;5016345;28;20041;-83
2021/11/27 07:27:33;;;;;;;14.07;9.02;;;5.40;95.00;;;;;;5012716;28;20112;-83
2021/11/27 07:29:59;;;;;;;14.73;9.38;;;5.50;94.90;;;;;;5016583;28;20045;-83
2021/11/27 07:32:25;;;;;;;16.42;9.05;;;5.50;94.60;;;;;;5023844;28;20196;-83
2021/11/27 07:34:50;;;;;;;14.60;9.85;;;5.60;94.60;;;;;;5029769;28;20104;-83
2021/11/27 07:37:16;;;;;;;15.45;9.63;;;5.60;94.60;;;;;;5023307;28;20041;-83
2021/11/27 07:39:41;;;;;;;18.23;9.95;;;5.60;94.40;;;;;;5031448;28;20103;-83
2021/11/27 07:42:07;;;;;;;17.10;9.77;;;5.60;94.40;;;;;;5033425;28;20077;-83
2021/11/27 07:44:33;;;;;;;14.60;9.32;;;5.70;94.40;;;;;;5045401;28;20030;-82
2021/11/27 07:46:58;;;;;;;15.63;10.02;;;5.70;94.40;;;;;;5034496;28;20033;-81
2021/11/27 07:49:25;;;;;;;18.15;8.80;;;5.70;94.40;;;;;;5036094;28;20034;-79
2021/11/27 07:51:52;;;;;;;16.27;7.72;;;5.80;95.20;;;;;;5024327;28;20030;-78
2021/11/27 07:54:18;;;;;;;15.27;9.40;;;5.80;95.60;;;;;;5013388;28;20042;-79
2021/11/27 07:56:45;;;;;;;14.45;9.63;;;5.90;95.30;;;;;;5010474;28;20049;-78
2021/11/27 07:59:10;;;;;;;15.15;9.38;;;6.00;95.10;;;;;;5011938;28;20518;-79
2021/11/27 08:01:36;;;;;;;14.90;9.50;;;6.10;94.80;;;;;;5012327;28;20030;-78
2021/11/27 08:04:02;;;;;;;14.55;9.75;;;6.10;94.90;;;;;;5017205;28;20033;-79
2021/11/27 08:06:28;;;;;;;14.95;8.88;;;6.20;94.10;;;;;;5030334;28;20026;-79
2021/11/27 08:08:53;;;;;;;13.60;9.25;;;6.30;94.10;;;;;;5026949;28;20033;-79
2021/11/27 08:11:20;;;;;;;14.77;8.75;;;6.30;93.60;;;;;;5011440;28;20033;-79
2021/11/27 08:13:47;;;;;;;14.52;9.27;;;6.30;94.10;;;;;;5012962;28;20076;-79
2021/11/27 08:16:16;;;;;;;14.63;9.00;;;6.30;94.10;;;;;;5010670;28;20455;-79
2021/11/27 08:18:41;;;;;;;15.90;9.25;;;6.40;94.30;;;;;;5015776;28;20037;-79
2021/11/27 08:21:07;;;;;;;16.40;9.38;;;6.40;94.20;;;;;;5029026;28;20029;-79
2021/11/27 08:23:32;;;;;;;14.93;9.27;;;6.50;93.70;;;;;;5031677;28;20119;-79
2021/11/27 08:25:58;;;;;;;13.23;8.50;;;6.50;93.40;;;;;;5029600;28;20029;-81
2021/11/27 08:28:24;;;;;;;14.18;8.52;;;6.60;93.10;;;;;;5032414;28;20418;-80
2021/11/27 08:30:49;;;;;;;13.65;8.35;;;6.50;93.40;;;;;;5030034;28;20112;-80
2021/11/27 08:33:15;;;;;;;14.57;8.88;;;6.50;93.30;;;;;;5025680;28;20441;-81
2021/11/27 08:35:41;;;;;;;12.25;8.60;;;6.50;93.30;;;;;;5034871;28;20055;-82
2021/11/27 08:38:07;;;;;;;16.17;8.63;;;6.50;93.60;;;;;;5038744;28;20064;-81
2021/11/27 08:40:33;;;;;;;13.55;9.32;;;6.60;93.20;;;;;;5024312;28;20493;-81
2021/11/27 08:42:58;;;;;;;14.90;9.70;;;6.60;93.50;;;;;;5017492;28;20390;-79
2021/11/27 08:45:25;;;;;;;15.98;9.93;;;6.60;93.50;;;;;;5029266;28;20425;-79
2021/11/27 08:47:51;;;;;;;13.98;9.18;;;6.60;93.20;;;;;;5028440;28;20029;-78
2021/11/27 08:50:17;;;;;;;14.85;9.73;;;6.70;93.30;;;;;;5018035;28;20029;-79
2021/11/27 08:52:42;;;;;;;14.50;8.88;;;6.60;93.40;;;;;;5030802;28;20090;-78
2021/11/27 08:55:08;;;;;;;15.05;9.02;;;6.70;93.70;;;;;;5030729;28;20029;-79
2021/11/27 08:57:34;;;;;;;15.38;7.93;;;6.70;93.60;;;;;;5030991;28;20072;-80
2021/11/27 09:00:00;;;;;;;14.02;9.38;;;6.70;93.20;;;;;;5010772;28;20478;-79
2021/11/27 09:02:26;;;;;;;16.02;9.00;;;6.80;93.50;;;;;;5009967;28;20084;-79
2021/11/27 09:04:52;;;;;;;14.38;9.15;;;6.80;93.40;;;;;;5020874;28;20037;-80
2021/11/27 09:07:17;;;;;;;15.80;8.13;;;6.90;93.30;;;;;;5030613;28;20383;-78
2021/11/27 09:09:45;;;;;;;12.75;8.93;;;6.90;92.90;;;;;;5019955;28;20034;-79
2021/11/27 09:12:12;;;;;;;13.77;8.82;;;6.90;93.20;;;;;;5029281;28;20036;-79
2021/11/27 09:14:38;;;;;;;13.18;8.45;;;6.90;93.00;;;;;;5014762;28;20034;-79
2021/11/27 09:17:03;;;;;;;12.10;8.20;;;7.00;93.20;;;;;;5028235;28;20025;-79
2021/11/27 09:19:29;;;;;;;13.05;8.63;;;7.00;93.10;;;;;;5029268;28;20040;-79
2021/11/27 09:21:54;;;;;;;13.90;8.98;;;7.00;92.90;;;;;;5009566;28;20096;-79
2021/11/27 09:24:20;;;;;;;12.60;8.38;;;7.10;92.70;;;;;;5012960;28;20043;-79
2021/11/27 09:26:47;;;;;;;13.18;8.38;;;7.10;92.70;;;;;;5025630;28;20117;-78
2021/11/27 09:29:14;;;;;;;12.23;7.55;;;7.10;92.40;;;;;;5022082;28;20036;-78
2021/11/27 09:31:40;;;;;;;13.68;8.65;;;7.00;92.40;;;;;;5029910;28;20057;-79
2021/11/27 09:34:07;;;;;;;12.02;7.97;;;7.00;92.50;;;;;;5028148;28;20057;-78
2021/11/27 09:36:34;;;;;;;15.40;8.85;;;6.90;92.80;;;;;;5029769;28;20441;-78
2021/11/27 09:39:00;;;;;;;15.02;8.57;;;6.90;92.60;;;;;;5029948;28;20072;-78
2021/11/27 09:41:28;;;;;;;13.55;8.27;;;7.00;93.10;;;;;;5030311;28;20077;-79
2021/11/27 09:43:58;;;;;;;15.15;8.57;;;7.00;92.80;;;;;;5028782;28;20021;-79
2021/11/27 09:46:25;;;;;;;15.32;9.02;;;7.00;92.80;;;;;;5026974;28;20072;-79
2021/11/27 09:48:56;;;;;;;11.80;7.80;;;7.10;92.90;;;;;;5036606;28;20037;-79
2021/11/27 09:51:27;;;;;;;9.65;6.78;;;7.20;93.40;;;;;;5036153;28;20033;-79
2021/11/27 09:53:54;;;;;;;12.65;7.45;;;7.20;92.90;;;;;;5024601;28;20025;-80
2021/11/27 09:56:22;;;;;;;14.10;8.35;;;7.30;92.80;;;;;;5025486;28;20038;-79
2021/11/27 09:58:48;;;;;;;13.52;7.22;;;7.50;92.00;;;;;;5024964;28;20037;-79
2021/11/27 10:01:15;;;;;;;10.65;7.53;;;7.50;92.10;;;;;;5015893;28;20066;-80
2021/11/27 10:03:49;;;;;;;12.23;7.68;;;7.60;92.30;;;;;;5018719;28;20034;-80
2021/11/27 10:06:16;;;;;;;11.63;8.00;;;7.60;92.00;;;;;;5029289;28;20041;-81
2021/11/27 10:08:42;;;;;;;9.77;7.20;;;7.60;92.10;;;;;;5035405;28;20029;-82
2021/11/27 10:11:08;;;;;;;11.68;7.57;;;7.60;92.30;;;;;;5035358;28;20390;-81
2021/11/27 10:13:33;;;;;;;11.60;8.27;;;7.80;92.20;;;;;;5028377;28;20378;-80
2021/11/27 10:15:59;;;;;;;11.45;7.20;;;7.80;91.80;;;;;;5015096;28;20075;-80
2021/11/27 10:18:26;;;;;;;12.93;7.70;;;7.90;91.90;;;;;;5017029;28;20429;-80
2021/11/27 10:21:13;;;;;;;10.23;7.03;;;7.90;91.40;;;;;;5023000;28;20466;-80
2021/11/27 10:23:39;;;;;;;10.52;7.22;;;8.00;91.10;;;;;;5033406;28;20036;-79
2021/11/27 10:26:05;;;;;;;13.95;7.50;;;8.00;91.30;;;;;;5034407;28;20033;-77
2021/11/27 10:28:31;;;;;;;10.25;7.25;;;8.00;91.50;;;;;;5020945;28;20429;-82
2021/11/27 10:31:05;;;;;;;11.35;7.22;;;8.00;91.10;;;;;;5022180;28;20037;-83
2021/11/27 10:33:36;;;;;;;12.60;7.22;;;7.90;91.00;;;;;;5028742;28;20083;-83
2021/11/27 10:36:09;;;;;;;13.48;7.85;;;7.90;91.30;;;;;;5020325;28;20087;-85
2021/11/27 10:38:46;;;;;;;12.98;7.18;;;7.90;91.60;;;;;;5023888;28;20083;-85
2021/11/27 10:41:14;;;;;;;9.30;6.60;;;8.00;91.80;;;;;;5032197;28;20091;-83
